Aérodrome :
LOGIN :

S'inscrire | Disclaimer

   EN    FR    IT 

 










Légende :    VFR   VFR Marginal   IFR   IFR Intensif   IFR Très Intensif
Visi : 
Plafond : 
>= 8 km
>= 3000ft
5 à 8 km
1000 à 3000 ft
1500m à 5 km
500 à 1000 ft
800 à 1500m
200 à 500 ft
< 800m
< 200 ft
Symboles :   Orages  Brouillard  Fortes neiges  Fortes précipitations  Vent > 20 kt
SIGMETs :   Divers  Orages  Givrage  Turbulence  Onde Orograph.  Cendres Volcan.






- Altitude de l'aérodrome : 94 ft
- Code IATA : QLT


LIRL - Latina Casale (military)

DERNIER METAR :
  • 180955Z 21008KT 9999 FEW025 BKN070 27/23 Q1018 RMK BKN MON LIB NC VIS MIN 9999 WIND THR12 /////KT WIND THR30 25008KT BLU

METARs EXPIRÉS :
  • 180855Z 24004KT 9999 FEW025 SCT060 30/21 Q1018 RMK SCT MON LIB NC VIS MIN 9999 WIND THR12 /////KT WIND THR30 24006KT BLU
  • 180755Z 24005KT 9999 FEW025 SCT070 27/21 Q1018

TAF TAF LIRL
Valide du 18 à 09h jusqu'au 18 à 18h UTC


180800Z 1809/1818 25008KT 9999 FEW025 SCT070
TEMPO 1812/1816 FEW025TCU SCT030



MET'MAP, la Météo Aéronautique d'un coup d'oeil ! - Copyright ORBIFLY Décembre 2007 - Disclaimer

ORBIFLY MET'MAP TEAM :

Programmation & Développement : Alexandra Zaïnal
Sur une idée originale de : Baudouin d'Aumeries
Assistance à la programmation : Marc-Olivier Méhu
Soutien technique & logistique : Manuel Goepfert

Contact : metmap@orbifly.com




SOURCES & CREDITS :

   NOAA